Orchard Island, Ohio
Current Conditions -  °F | °C
As of 2:50 PM on Sunday 23 Nov 2014 (Local Time) from KEDJ Reporting Station
Scattered Clouds Scattered Clouds  
Wind Chill: 55°   Ceiling: Unl
Heat Index: 55°   Visibility: 10mi
Dew Point: 41°   Wind: 14mph
Humidity: 58%   Direction: 140°SE
Pressure: 29.71"   Gusts: NA
Location:  40.5245°N, 83.9354°W
Report Text: KEDJ 231950Z AUTO 14012KT 10SM SCT049 SCT065 13/05 A2971 RMK AO1
Loading
Personal Weather Stations






























Interactive Weather Map New forecast layout! Learn more

10-Day Weather Forecast

Advertisements
Track Severe Weather on mobile